createdAt,value
2023-04-22T00:02:29.976Z,23.2
2023-04-22T00:08:23.633Z,23.3
2023-04-22T00:14:14.997Z,23.2
2023-04-22T00:20:08.016Z,22.9
2023-04-22T00:25:59.707Z,22.6
2023-04-22T00:31:51.812Z,23.2
2023-04-22T00:37:44.151Z,25.7
2023-04-22T00:43:20.010Z,23.3
2023-04-22T00:49:12.645Z,23.4
2023-04-22T00:55:04.238Z,23.3
2023-04-22T01:00:40.212Z,23.1
2023-04-22T01:06:18.492Z,22.8
2023-04-22T01:11:55.484Z,22.4
2023-04-22T01:17:50.467Z,24
2023-04-22T01:23:42.104Z,23.7
2023-04-22T01:29:33.458Z,23.3
2023-04-22T01:35:25.788Z,23.3
2023-04-22T01:41:17.779Z,23.2
2023-04-22T01:47:09.139Z,22.9
2023-04-22T01:52:45.545Z,22.6
2023-04-22T01:58:22.166Z,22.8
2023-04-22T02:04:14.770Z,25.2
2023-04-22T02:10:07.405Z,23.3
2023-04-22T02:15:58.375Z,23.3
2023-04-22T02:21:50.834Z,23.3
2023-04-22T02:27:42.268Z,23.1
2023-04-22T02:33:33.588Z,22.7
2023-04-22T02:39:25.315Z,22.4
2023-04-22T02:45:16.708Z,24.1
2023-04-22T02:50:52.554Z,23.7
2023-04-22T02:56:44.583Z,23.3
2023-04-22T03:02:40.726Z,23.3
2023-04-22T03:08:32.796Z,23.2
2023-04-22T03:14:25.006Z,22.9
2023-04-22T03:20:17.451Z,22.6
2023-04-22T03:26:08.750Z,22.6
2023-04-22T03:32:00.524Z,24.9
2023-04-22T03:37:54.853Z,23.3
2023-04-22T03:43:47.572Z,23.3
2023-04-22T03:49:42.365Z,23.3
2023-04-22T03:55:34.163Z,23.1
2023-04-22T04:01:10.273Z,22.8
2023-04-22T04:07:08.326Z,22.4
2023-04-22T04:12:59.662Z,23.7
2023-04-22T04:18:51.796Z,24.3
2023-04-22T04:24:46.197Z,23.3
2023-04-22T04:30:22.235Z,23.6
2023-04-22T04:36:14.700Z,23.1
2023-04-22T04:41:51.387Z,22.8
2023-04-22T04:47:44.892Z,22.3
2023-04-22T04:53:35.775Z,22.1
2023-04-22T04:59:27.522Z,24.2
2023-04-22T05:05:21.323Z,23.6
2023-04-22T05:11:13.051Z,23.3
2023-04-22T05:17:04.787Z,23.3
2023-04-22T05:22:56.146Z,23.1
2023-04-22T05:28:47.542Z,22.8
2023-04-22T05:34:24.890Z,22.5
2023-04-22T05:40:16.842Z,24.3
2023-04-22T05:46:10.310Z,23.6
2023-04-22T05:52:03.022Z,23.3
2023-04-22T05:57:53.878Z,23.3
2023-04-22T06:03:47.480Z,23.1
2023-04-22T06:09:26.170Z,22.8
2023-04-22T06:15:23.633Z,22.4
2023-04-22T06:21:17.579Z,23
2023-04-22T06:26:54.290Z,25.7
2023-04-22T06:32:46.058Z,23.3
2023-04-22T06:38:37.297Z,23.3
2023-04-22T06:44:29.187Z,23.2
2023-04-22T06:50:20.726Z,22.9
2023-04-22T06:56:15.025Z,22.6
2023-04-22T07:01:52.249Z,22.2
2023-04-22T07:07:45.402Z,23.1
2023-04-22T07:13:21.589Z,24.9
2023-04-22T07:19:13.620Z,23.3
2023-04-22T07:25:05.735Z,23.3
2023-04-22T07:30:56.757Z,23.1
2023-04-22T07:36:33.470Z,22.8
2023-04-22T07:42:25.175Z,22.5
2023-04-22T07:48:17.150Z,23.4
2023-04-22T07:54:11.628Z,24.3
2023-04-22T07:59:48.070Z,23.2
2023-04-22T08:05:43.814Z,23.3
2023-04-22T08:11:51.983Z,23.1
2023-04-22T08:17:43.974Z,22.8
2023-04-22T08:23:35.256Z,22.6
2023-04-22T08:29:26.571Z,24.9
2023-04-22T08:35:08.399Z,23.3
2023-04-22T08:41:03.725Z,23.3
2023-04-22T08:47:00.427Z,23.3
2023-04-22T08:52:53.244Z,23
2023-04-22T08:58:29.614Z,22.8
2023-04-22T09:04:22.889Z,23.6
2023-04-22T09:09:59.380Z,23.9
2023-04-22T09:15:52.383Z,23.2
2023-04-22T09:21:44.310Z,23.3
2023-04-22T09:27:35.917Z,23.1
2023-04-22T09:33:28.160Z,22.9
2023-04-22T09:39:28.779Z,22.9
2023-04-22T09:45:20.520Z,25.8
2023-04-22T09:51:12.443Z,23.2
2023-04-22T09:57:03.797Z,23.3
2023-04-22T10:02:55.315Z,23.1
2023-04-22T10:08:46.769Z,22.9
2023-04-22T10:14:47.726Z,22.6
2023-04-22T10:20:24.167Z,22.3
2023-04-22T10:26:14.893Z,22.1
2023-04-22T10:31:51.874Z,21.8
2023-04-22T10:37:48.548Z,21.4
2023-04-22T10:43:40.624Z,21.2
2023-04-22T10:49:17.565Z,20.9
2023-04-22T10:55:09.179Z,20.7
2023-04-22T11:01:19.769Z,20.4
2023-04-22T11:06:56.860Z,20.2
2023-04-22T11:12:32.721Z,20
2023-04-22T11:18:25.318Z,19.8
2023-04-22T11:24:19.687Z,19.6
2023-04-22T11:30:11.958Z,19.4
2023-04-22T11:35:49.077Z,19.3
2023-04-22T11:42:09.914Z,19.1
2023-04-22T11:48:02.263Z,18.9
2023-04-22T11:53:53.748Z,18.8
2023-04-22T11:59:30.237Z,18.6
2023-04-22T12:05:24.480Z,18.5
2023-04-22T12:11:16.109Z,18.4
2023-04-22T12:17:10.373Z,18.3
2023-04-22T12:23:02.033Z,18.1
2023-04-22T12:28:55.568Z,18
2023-04-22T12:34:47.390Z,17.9
2023-04-22T12:40:39.244Z,17.8
2023-04-22T12:46:31.679Z,17.8
2023-04-22T12:52:24.145Z,17.7
2023-04-22T12:58:15.775Z,17.6
2023-04-22T13:04:09.237Z,17.6
2023-04-22T13:10:12.855Z,17.6
2023-04-22T13:16:17.794Z,17.4
2023-04-22T13:22:12.317Z,17.4
2023-04-22T13:27:48.789Z,17.3
2023-04-22T13:33:44.385Z,17.3
2023-04-22T13:39:36.332Z,17.3
2023-04-22T13:45:28.309Z,17.2
2023-04-22T13:51:21.214Z,17.2
2023-04-22T13:57:13.491Z,17.1
2023-04-22T14:02:50.340Z,17.1
2023-04-22T14:08:27.964Z,17.1
2023-04-22T14:25:36.252Z,16.9
2023-04-22T14:31:27.801Z,16.9
2023-04-22T14:37:22.158Z,16.9
2023-04-22T14:43:15.158Z,16.9
2023-04-22T14:49:09.137Z,16.9
2023-04-22T14:55:05.895Z,16.9
2023-04-22T15:01:01.914Z,16.8
2023-04-22T15:06:53.673Z,16.8
2023-04-22T15:12:45.154Z,16.8
2023-04-22T15:18:37.022Z,16.8
2023-04-22T15:24:30.843Z,16.8
2023-04-22T15:30:22.568Z,16.8
2023-04-22T15:36:15.825Z,16.8
2023-04-22T15:42:07.680Z,16.8
2023-04-22T15:48:00.908Z,16.7
2023-04-22T15:53:36.551Z,16.7
2023-04-22T15:59:27.521Z,16.7
2023-04-22T16:05:43.506Z,16.7
2023-04-22T16:11:35.281Z,16.7
2023-04-22T16:17:26.646Z,16.7
2023-04-22T16:23:18.186Z,16.7
2023-04-22T16:29:09.134Z,16.7
2023-04-22T16:34:45.587Z,16.7
2023-04-22T16:40:21.448Z,16.7
2023-04-22T16:45:57.472Z,16.7
2023-04-22T16:51:48.745Z,16.7
2023-04-22T16:57:40.306Z,16.6
2023-04-22T17:03:34.316Z,16.6
2023-04-22T17:09:26.441Z,16.6
2023-04-22T17:15:18.664Z,16.7
2023-04-22T17:21:09.750Z,16.7
2023-04-22T17:27:00.845Z,16.7
2023-04-22T17:32:36.901Z,16.7
2023-04-22T17:38:29.870Z,16.7
2023-04-22T17:44:34.378Z,16.7
2023-04-22T17:50:25.880Z,16.7
2023-04-22T17:56:17.170Z,16.7
2023-04-22T18:02:08.845Z,16.7
2023-04-22T18:08:01.664Z,16.7
2023-04-22T18:13:53.563Z,16.6
2023-04-22T18:19:30.695Z,16.6
2023-04-22T18:25:50.452Z,16.6
2023-04-22T18:31:41.622Z,16.6
2023-04-22T18:37:17.818Z,16.6
2023-04-22T18:43:09.154Z,16.6
2023-04-22T18:48:45.181Z,16.6
2023-04-22T18:54:35.806Z,16.6
2023-04-22T19:00:13.395Z,16.6
2023-04-22T19:05:51.285Z,16.6
2023-04-22T19:11:42.590Z,16.6
2023-04-22T19:17:35.387Z,16.6
2023-04-22T19:23:11.471Z,16.6
2023-04-22T19:28:48.252Z,16.6
2023-04-22T19:34:25.458Z,16.6
2023-04-22T19:40:18.666Z,16.6
2023-04-22T19:45:39.108Z,16.6
2023-04-22T19:51:31.106Z,16.6
2023-04-22T19:57:22.183Z,16.6
2023-04-22T20:03:15.399Z,16.6
2023-04-22T20:09:07.946Z,16.6
2023-04-22T20:14:59.328Z,16.6
2023-04-22T20:20:51.597Z,16.5
2023-04-22T20:26:43.719Z,16.6
2023-04-22T20:32:35.550Z,16.5
2023-04-22T20:38:27.168Z,16.5
2023-04-22T20:44:18.185Z,16.5
2023-04-22T20:50:13.541Z,16.5
2023-04-22T20:56:17.306Z,21.6
2023-04-22T21:02:08.381Z,24.6
2023-04-22T21:08:01.910Z,22.7
2023-04-22T21:13:53.796Z,22.6
2023-04-22T21:19:46.754Z,22.8
2023-04-22T21:25:37.650Z,22.6
2023-04-22T21:31:29.976Z,24.6
2023-04-22T21:37:36.129Z,22.8
2023-04-22T21:43:27.421Z,22.9
2023-04-22T21:49:03.249Z,22.9
2023-04-22T21:54:54.859Z,22.8
2023-04-22T22:00:30.710Z,22.7
2023-04-22T22:06:10.886Z,24.6
2023-04-22T22:12:14.053Z,22.9
2023-04-22T22:18:07.177Z,22.9
2023-04-22T22:23:58.435Z,23.1
2023-04-22T22:29:50.932Z,22.9
2023-04-22T22:35:42.919Z,22.7
2023-04-22T22:41:34.896Z,23.3
2023-04-22T22:47:27.762Z,24.9
2023-04-22T22:53:19.595Z,23
2023-04-22T22:59:10.789Z,23.2
2023-04-22T23:05:05.097Z,23.1
2023-04-22T23:10:41.259Z,22.9
2023-04-22T23:16:32.573Z,22.7
2023-04-22T23:22:24.273Z,23.4
2023-04-22T23:28:15.239Z,25
2023-04-22T23:34:05.999Z,23.1
2023-04-22T23:39:58.292Z,23.2
2023-04-22T23:45:49.988Z,23.2
2023-04-22T23:51:26.775Z,22.9
2023-04-22T23:57:18.857Z,22.7
